sensor_id;sensor_type;location;lat;lon;timestamp;temperature;humidity
30851;DHT22;17567;48.382;9.102;2022-12-11T00:00:33;-2.10;99.90
30851;DHT22;17567;48.382;9.102;2022-12-11T00:05:33;-2.10;99.90
30851;DHT22;17567;48.382;9.102;2022-12-11T00:10:34;-2.10;99.90
30851;DHT22;17567;48.382;9.102;2022-12-11T00:15:36;-2.20;99.90
30851;DHT22;17567;48.382;9.102;2022-12-11T00:20:37;-2.30;99.90
30851;DHT22;17567;48.382;9.102;2022-12-11T00:25:42;-2.40;99.90
30851;DHT22;17567;48.382;9.102;2022-12-11T00:30:46;-2.40;99.90
30851;DHT22;17567;48.382;9.102;2022-12-11T00:35:48;-2.50;99.90
30851;DHT22;17567;48.382;9.102;2022-12-11T00:40:49;-2.60;99.90
30851;DHT22;17567;48.382;9.102;2022-12-11T00:45:49;-2.60;99.90
30851;DHT22;17567;48.382;9.102;2022-12-11T00:50:50;-2.50;99.90
30851;DHT22;17567;48.382;9.102;2022-12-11T00:55:51;-2.50;99.90
30851;DHT22;17567;48.382;9.102;2022-12-11T01:00:52;-2.50;99.90
30851;DHT22;17567;48.382;9.102;2022-12-11T01:05:53;-2.40;99.90
30851;DHT22;17567;48.382;9.102;2022-12-11T01:11:15;-2.60;99.90
30851;DHT22;17567;48.382;9.102;2022-12-11T01:16:16;-2.60;99.90
30851;DHT22;17567;48.382;9.102;2022-12-11T01:21:16;-2.60;99.90
30851;DHT22;17567;48.382;9.102;2022-12-11T01:26:17;-2.60;99.90
30851;DHT22;17567;48.382;9.102;2022-12-11T01:31:19;-2.70;99.90
30851;DHT22;17567;48.382;9.102;2022-12-11T01:36:21;-2.90;99.90
30851;DHT22;17567;48.382;9.102;2022-12-11T01:41:21;-3.10;99.90
30851;DHT22;17567;48.382;9.102;2022-12-11T01:46:23;-3.30;99.90
30851;DHT22;17567;48.382;9.102;2022-12-11T01:51:24;-3.50;99.90
30851;DHT22;17567;48.382;9.102;2022-12-11T01:56:26;-3.50;99.90
30851;DHT22;17567;48.382;9.102;2022-12-11T02:06:55;-4.10;99.90
30851;DHT22;17567;48.382;9.102;2022-12-11T02:12:08;-4.50;99.90
30851;DHT22;17567;48.382;9.102;2022-12-11T02:17:34;-4.70;99.90
30851;DHT22;17567;48.382;9.102;2022-12-11T02:28:38;-4.80;99.90
30851;DHT22;17567;48.382;9.102;2022-12-11T02:38:50;-4.80;99.90
30851;DHT22;17567;48.382;9.102;2022-12-11T02:43:51;-4.90;99.90
30851;DHT22;17567;48.382;9.102;2022-12-11T02:48:53;-5.00;99.90
30851;DHT22;17567;48.382;9.102;2022-12-11T02:53:57;-5.00;99.90
30851;DHT22;17567;48.382;9.102;2022-12-11T02:59:04;-4.90;99.90
30851;DHT22;17567;48.382;9.102;2022-12-11T03:04:06;-4.80;99.90
30851;DHT22;17567;48.382;9.102;2022-12-11T03:09:07;-4.80;99.90
30851;DHT22;17567;48.382;9.102;2022-12-11T03:14:08;-4.80;99.90
30851;DHT22;17567;48.382;9.102;2022-12-11T03:19:27;-4.80;99.90
30851;DHT22;17567;48.382;9.102;2022-12-11T03:24:45;-4.80;99.90
30851;DHT22;17567;48.382;9.102;2022-12-11T03:30:01;-4.80;99.90
30851;DHT22;17567;48.382;9.102;2022-12-11T03:35:07;-4.80;99.90
30851;DHT22;17567;48.382;9.102;2022-12-11T03:40:14;-4.80;99.90
30851;DHT22;17567;48.382;9.102;2022-12-11T03:45:16;-4.80;99.90
30851;DHT22;17567;48.382;9.102;2022-12-11T03:50:19;-4.70;99.90
30851;DHT22;17567;48.382;9.102;2022-12-11T03:55:22;-4.70;99.90
30851;DHT22;17567;48.382;9.102;2022-12-11T04:00:23;-4.60;99.90
30851;DHT22;17567;48.382;9.102;2022-12-11T04:05:25;-4.50;99.90
30851;DHT22;17567;48.382;9.102;2022-12-11T04:10:26;-4.50;99.90
30851;DHT22;17567;48.382;9.102;2022-12-11T04:15:26;-4.60;99.90
30851;DHT22;17567;48.382;9.102;2022-12-11T04:20:27;-4.60;99.90
30851;DHT22;17567;48.382;9.102;2022-12-11T04:25:46;-4.70;99.90
30851;DHT22;17567;48.382;9.102;2022-12-11T04:30:48;-4.80;99.90
30851;DHT22;17567;48.382;9.102;2022-12-11T04:35:49;-4.80;99.90
30851;DHT22;17567;48.382;9.102;2022-12-11T04:40:56;-4.90;99.90
30851;DHT22;17567;48.382;9.102;2022-12-11T04:46:09;-5.10;99.90
30851;DHT22;17567;48.382;9.102;2022-12-11T04:51:10;-5.20;99.90
30851;DHT22;17567;48.382;9.102;2022-12-11T04:56:14;-5.10;99.90
30851;DHT22;17567;48.382;9.102;2022-12-11T05:01:20;-5.20;99.90
30851;DHT22;17567;48.382;9.102;2022-12-11T05:06:21;-5.40;99.90
30851;DHT22;17567;48.382;9.102;2022-12-11T05:11:22;-5.40;99.90
30851;DHT22;17567;48.382;9.102;2022-12-11T05:16:22;-5.50;99.90
30851;DHT22;17567;48.382;9.102;2022-12-11T05:21:23;-5.70;99.90
30851;DHT22;17567;48.382;9.102;2022-12-11T05:26:24;-5.80;99.90
30851;DHT22;17567;48.382;9.102;2022-12-11T05:31:25;-5.80;99.90
30851;DHT22;17567;48.382;9.102;2022-12-11T05:36:31;-5.80;99.90
30851;DHT22;17567;48.382;9.102;2022-12-11T05:41:32;-5.90;99.90
30851;DHT22;17567;48.382;9.102;2022-12-11T05:46:33;-6.10;99.90
30851;DHT22;17567;48.382;9.102;2022-12-11T05:51:35;-6.30;99.90
30851;DHT22;17567;48.382;9.102;2022-12-11T05:56:36;-6.30;99.90
30851;DHT22;17567;48.382;9.102;2022-12-11T06:01:39;-6.30;99.90
30851;DHT22;17567;48.382;9.102;2022-12-11T06:06:40;-6.40;99.90
30851;DHT22;17567;48.382;9.102;2022-12-11T06:11:43;-6.50;99.90
30851;DHT22;17567;48.382;9.102;2022-12-11T06:16:45;-6.60;99.90
30851;DHT22;17567;48.382;9.102;2022-12-11T06:21:45;-6.70;99.90
30851;DHT22;17567;48.382;9.102;2022-12-11T06:26:48;-6.70;99.90
30851;DHT22;17567;48.382;9.102;2022-12-11T06:31:48;-6.70;99.90
30851;DHT22;17567;48.382;9.102;2022-12-11T06:36:49;-6.60;99.90
30851;DHT22;17567;48.382;9.102;2022-12-11T06:41:50;-6.60;99.90
30851;DHT22;17567;48.382;9.102;2022-12-11T06:46:50;-6.60;99.90
30851;DHT22;17567;48.382;9.102;2022-12-11T06:51:51;-6.60;99.90
30851;DHT22;17567;48.382;9.102;2022-12-11T06:56:51;-6.80;99.90
30851;DHT22;17567;48.382;9.102;2022-12-11T07:01:52;-6.60;99.90
30851;DHT22;17567;48.382;9.102;2022-12-11T07:06:53;-6.80;99.90
30851;DHT22;17567;48.382;9.102;2022-12-11T07:11:53;-7.00;99.90
30851;DHT22;17567;48.382;9.102;2022-12-11T07:16:54;-7.00;99.90
30851;DHT22;17567;48.382;9.102;2022-12-11T07:21:55;-7.20;99.90
30851;DHT22;17567;48.382;9.102;2022-12-11T07:26:56;-7.40;99.90
30851;DHT22;17567;48.382;9.102;2022-12-11T07:31:56;-7.50;99.90
30851;DHT22;17567;48.382;9.102;2022-12-11T07:36:57;-7.80;99.90
30851;DHT22;17567;48.382;9.102;2022-12-11T07:41:57;-8.00;99.90
30851;DHT22;17567;48.382;9.102;2022-12-11T07:46:58;-8.00;99.90
30851;DHT22;17567;48.382;9.102;2022-12-11T07:51:59;-8.20;99.90
30851;DHT22;17567;48.382;9.102;2022-12-11T07:56:59;-8.20;99.90
30851;DHT22;17567;48.382;9.102;2022-12-11T08:02:00;-7.90;99.90
30851;DHT22;17567;48.382;9.102;2022-12-11T08:07:00;-7.90;99.90
30851;DHT22;17567;48.382;9.102;2022-12-11T08:12:01;-7.90;99.90
30851;DHT22;17567;48.382;9.102;2022-12-11T08:17:02;-7.90;99.90
30851;DHT22;17567;48.382;9.102;2022-12-11T08:22:03;-7.80;99.90
30851;DHT22;17567;48.382;9.102;2022-12-11T08:27:03;-7.90;99.90
30851;DHT22;17567;48.382;9.102;2022-12-11T08:32:04;-7.80;99.90
30851;DHT22;17567;48.382;9.102;2022-12-11T08:37:05;-7.70;99.90
30851;DHT22;17567;48.382;9.102;2022-12-11T08:42:06;-7.30;99.90
30851;DHT22;17567;48.382;9.102;2022-12-11T08:47:06;-7.10;99.90
30851;DHT22;17567;48.382;9.102;2022-12-11T08:52:09;-6.90;99.90
30851;DHT22;17567;48.382;9.102;2022-12-11T08:57:09;-6.60;99.90
30851;DHT22;17567;48.382;9.102;2022-12-11T09:02:11;-6.30;99.90
30851;DHT22;17567;48.382;9.102;2022-12-11T09:07:12;-6.10;99.90
30851;DHT22;17567;48.382;9.102;2022-12-11T09:12:13;-5.80;99.90
30851;DHT22;17567;48.382;9.102;2022-12-11T09:17:13;-5.70;99.90
30851;DHT22;17567;48.382;9.102;2022-12-11T09:22:14;-5.50;99.90
30851;DHT22;17567;48.382;9.102;2022-12-11T09:27:15;-5.10;99.90
30851;DHT22;17567;48.382;9.102;2022-12-11T09:32:16;-4.70;99.90
30851;DHT22;17567;48.382;9.102;2022-12-11T09:37:17;-4.00;99.90
30851;DHT22;17567;48.382;9.102;2022-12-11T09:42:40;-3.50;99.90
30851;DHT22;17567;48.382;9.102;2022-12-11T09:47:50;-3.30;99.90
30851;DHT22;17567;48.382;9.102;2022-12-11T09:53:25;-3.10;99.90
30851;DHT22;17567;48.382;9.102;2022-12-11T10:19:48;-0.70;99.90
30851;DHT22;17567;48.382;9.102;2022-12-11T10:35:38;-0.50;99.90
30851;DHT22;17567;48.382;9.102;2022-12-11T10:40:46;-0.40;99.90
30851;DHT22;17567;48.382;9.102;2022-12-11T10:45:51;-0.50;99.90
30851;DHT22;17567;48.382;9.102;2022-12-11T10:51:01;-0.50;99.90
30851;DHT22;17567;48.382;9.102;2022-12-11T11:01:36;-0.30;99.90
30851;DHT22;17567;48.382;9.102;2022-12-11T11:06:37;-0.50;99.90
30851;DHT22;17567;48.382;9.102;2022-12-11T11:11:38;-0.70;99.90
30851;DHT22;17567;48.382;9.102;2022-12-11T11:16:41;-0.90;99.90
30851;DHT22;17567;48.382;9.102;2022-12-11T11:21:48;-0.90;99.90
30851;DHT22;17567;48.382;9.102;2022-12-11T11:26:50;-0.70;99.90
30851;DHT22;17567;48.382;9.102;2022-12-11T11:31:50;-0.50;99.90
30851;DHT22;17567;48.382;9.102;2022-12-11T11:36:56;-0.20;99.90
30851;DHT22;17567;48.382;9.102;2022-12-11T11:42:03;0.10;99.90
30851;DHT22;17567;48.382;9.102;2022-12-11T11:47:22;0.30;99.90
30851;DHT22;17567;48.382;9.102;2022-12-11T11:52:33;0.50;99.90
30851;DHT22;17567;48.382;9.102;2022-12-11T11:57:56;0.80;99.90
30851;DHT22;17567;48.382;9.102;2022-12-11T12:03:18;0.90;99.90
30851;DHT22;17567;48.382;9.102;2022-12-11T12:08:31;1.10;99.90
30851;DHT22;17567;48.382;9.102;2022-12-11T12:19:06;1.60;99.90
30851;DHT22;17567;48.382;9.102;2022-12-11T15:27:38;-0.90;99.90
30851;DHT22;17567;48.382;9.102;2022-12-11T15:32:39;-1.00;99.90
30851;DHT22;17567;48.382;9.102;2022-12-11T15:37:40;-1.10;99.90
30851;DHT22;17567;48.382;9.102;2022-12-11T15:42:51;-1.10;99.90
30851;DHT22;17567;48.382;9.102;2022-12-11T15:47:52;-1.20;99.90
30851;DHT22;17567;48.382;9.102;2022-12-11T15:52:54;-1.30;99.90
30851;DHT22;17567;48.382;9.102;2022-12-11T15:57:59;-1.30;99.90
30851;DHT22;17567;48.382;9.102;2022-12-11T16:03:01;-1.40;99.90
30851;DHT22;17567;48.382;9.102;2022-12-11T16:08:01;-1.50;99.90
30851;DHT22;17567;48.382;9.102;2022-12-11T16:13:02;-1.40;99.90
30851;DHT22;17567;48.382;9.102;2022-12-11T16:18:08;-1.40;99.90
30851;DHT22;17567;48.382;9.102;2022-12-11T16:23:10;-1.60;99.90
30851;DHT22;17567;48.382;9.102;2022-12-11T16:28:14;-1.70;99.90
30851;DHT22;17567;48.382;9.102;2022-12-11T16:33:15;-1.70;99.90
30851;DHT22;17567;48.382;9.102;2022-12-11T16:38:15;-1.90;99.90
30851;DHT22;17567;48.382;9.102;2022-12-11T16:43:16;-1.90;99.90
30851;DHT22;17567;48.382;9.102;2022-12-11T16:48:17;-1.90;99.90
30851;DHT22;17567;48.382;9.102;2022-12-11T16:53:17;-2.00;99.90
30851;DHT22;17567;48.382;9.102;2022-12-11T16:58:18;-2.00;99.90
30851;DHT22;17567;48.382;9.102;2022-12-11T17:03:19;-2.10;99.90
30851;DHT22;17567;48.382;9.102;2022-12-11T17:08:20;-2.10;99.90
30851;DHT22;17567;48.382;9.102;2022-12-11T17:13:21;-2.10;99.90
30851;DHT22;17567;48.382;9.102;2022-12-11T17:18:21;-2.20;99.90
30851;DHT22;17567;48.382;9.102;2022-12-11T17:23:23;-2.20;99.90
30851;DHT22;17567;48.382;9.102;2022-12-11T17:28:24;-2.30;99.90
30851;DHT22;17567;48.382;9.102;2022-12-11T17:33:24;-2.40;99.90
30851;DHT22;17567;48.382;9.102;2022-12-11T17:38:25;-2.50;99.90
30851;DHT22;17567;48.382;9.102;2022-12-11T17:43:26;-2.60;99.90
30851;DHT22;17567;48.382;9.102;2022-12-11T17:48:27;-2.70;99.90
30851;DHT22;17567;48.382;9.102;2022-12-11T17:53:27;-2.70;99.90
30851;DHT22;17567;48.382;9.102;2022-12-11T17:58:29;-2.80;99.90
30851;DHT22;17567;48.382;9.102;2022-12-11T18:03:29;-2.80;99.90
30851;DHT22;17567;48.382;9.102;2022-12-11T18:08:31;-3.00;99.90
30851;DHT22;17567;48.382;9.102;2022-12-11T18:13:32;-3.10;99.90
30851;DHT22;17567;48.382;9.102;2022-12-11T18:18:33;-3.10;99.90
30851;DHT22;17567;48.382;9.102;2022-12-11T18:23:34;-3.20;99.90
30851;DHT22;17567;48.382;9.102;2022-12-11T18:28:36;-3.50;99.90
30851;DHT22;17567;48.382;9.102;2022-12-11T18:33:38;-3.50;99.90
30851;DHT22;17567;48.382;9.102;2022-12-11T18:38:39;-3.30;99.90
30851;DHT22;17567;48.382;9.102;2022-12-11T18:43:40;-3.40;99.90
30851;DHT22;17567;48.382;9.102;2022-12-11T18:48:42;-3.40;99.90
30851;DHT22;17567;48.382;9.102;2022-12-11T18:53:44;-3.60;99.90
30851;DHT22;17567;48.382;9.102;2022-12-11T18:58:45;-3.60;99.90
30851;DHT22;17567;48.382;9.102;2022-12-11T19:03:46;-3.60;99.90
30851;DHT22;17567;48.382;9.102;2022-12-11T19:08:47;-3.50;99.90
30851;DHT22;17567;48.382;9.102;2022-12-11T19:13:49;-3.60;99.90
30851;DHT22;17567;48.382;9.102;2022-12-11T19:18:50;-3.50;99.90
30851;DHT22;17567;48.382;9.102;2022-12-11T19:23:51;-3.80;99.90
30851;DHT22;17567;48.382;9.102;2022-12-11T19:28:52;-3.80;99.90
30851;DHT22;17567;48.382;9.102;2022-12-11T19:33:53;-3.70;99.90
30851;DHT22;17567;48.382;9.102;2022-12-11T19:38:54;-3.90;99.90
30851;DHT22;17567;48.382;9.102;2022-12-11T19:43:56;-4.00;99.90
30851;DHT22;17567;48.382;9.102;2022-12-11T19:48:58;-4.10;99.90
30851;DHT22;17567;48.382;9.102;2022-12-11T19:54:00;-4.30;99.90
30851;DHT22;17567;48.382;9.102;2022-12-11T19:59:05;-4.60;99.90
30851;DHT22;17567;48.382;9.102;2022-12-11T20:04:09;-4.90;99.90
30851;DHT22;17567;48.382;9.102;2022-12-11T20:09:11;-4.80;99.90
30851;DHT22;17567;48.382;9.102;2022-12-11T20:14:24;-4.80;99.90
30851;DHT22;17567;48.382;9.102;2022-12-11T20:19:25;-4.80;99.90
30851;DHT22;17567;48.382;9.102;2022-12-11T20:24:26;-4.90;99.90
30851;DHT22;17567;48.382;9.102;2022-12-11T20:29:26;-5.00;99.90
30851;DHT22;17567;48.382;9.102;2022-12-11T20:34:27;-5.40;99.90
30851;DHT22;17567;48.382;9.102;2022-12-11T20:39:28;-5.30;99.90
30851;DHT22;17567;48.382;9.102;2022-12-11T20:44:30;-5.40;99.90
30851;DHT22;17567;48.382;9.102;2022-12-11T20:49:31;-5.40;99.90
30851;DHT22;17567;48.382;9.102;2022-12-11T20:54:32;-5.70;99.90
30851;DHT22;17567;48.382;9.102;2022-12-11T20:59:33;-6.00;99.90
30851;DHT22;17567;48.382;9.102;2022-12-11T21:04:38;-6.00;99.90
30851;DHT22;17567;48.382;9.102;2022-12-11T21:09:41;-6.40;99.90
30851;DHT22;17567;48.382;9.102;2022-12-11T21:14:41;-6.30;99.90
30851;DHT22;17567;48.382;9.102;2022-12-11T21:19:42;-6.20;99.90
30851;DHT22;17567;48.382;9.102;2022-12-11T21:24:44;-6.20;99.90
30851;DHT22;17567;48.382;9.102;2022-12-11T21:29:44;-6.20;99.90
30851;DHT22;17567;48.382;9.102;2022-12-11T21:34:45;-6.20;99.90
30851;DHT22;17567;48.382;9.102;2022-12-11T21:39:46;-6.30;99.90
30851;DHT22;17567;48.382;9.102;2022-12-11T21:44:47;-6.30;99.90
30851;DHT22;17567;48.382;9.102;2022-12-11T21:49:47;-6.40;99.90
30851;DHT22;17567;48.382;9.102;2022-12-11T21:54:48;-6.40;99.90
30851;DHT22;17567;48.382;9.102;2022-12-11T21:59:49;-6.40;99.90
30851;DHT22;17567;48.382;9.102;2022-12-11T22:04:49;-6.40;99.90
30851;DHT22;17567;48.382;9.102;2022-12-11T22:09:50;-6.40;99.90
30851;DHT22;17567;48.382;9.102;2022-12-11T22:14:51;-6.50;99.90
30851;DHT22;17567;48.382;9.102;2022-12-11T22:19:51;-6.50;99.90
30851;DHT22;17567;48.382;9.102;2022-12-11T22:24:52;-6.60;99.90
30851;DHT22;17567;48.382;9.102;2022-12-11T22:29:53;-6.70;99.90
30851;DHT22;17567;48.382;9.102;2022-12-11T22:34:53;-7.00;99.90
30851;DHT22;17567;48.382;9.102;2022-12-11T22:39:55;-7.30;99.90
30851;DHT22;17567;48.382;9.102;2022-12-11T22:44:56;-7.60;99.90
30851;DHT22;17567;48.382;9.102;2022-12-11T22:49:56;-7.60;99.90
30851;DHT22;17567;48.382;9.102;2022-12-11T22:54:57;-7.70;99.90
30851;DHT22;17567;48.382;9.102;2022-12-11T22:59:58;-7.90;99.90
30851;DHT22;17567;48.382;9.102;2022-12-11T23:04:59;-7.80;99.90
30851;DHT22;17567;48.382;9.102;2022-12-11T23:10:00;-7.80;99.90
30851;DHT22;17567;48.382;9.102;2022-12-11T23:15:01;-7.80;99.90
30851;DHT22;17567;48.382;9.102;2022-12-11T23:20:04;-8.00;99.90
30851;DHT22;17567;48.382;9.102;2022-12-11T23:25:05;-8.20;99.90
30851;DHT22;17567;48.382;9.102;2022-12-11T23:30:07;-8.30;99.90
30851;DHT22;17567;48.382;9.102;2022-12-11T23:35:11;-8.30;99.90
30851;DHT22;17567;48.382;9.102;2022-12-11T23:40:12;-8.40;99.90
30851;DHT22;17567;48.382;9.102;2022-12-11T23:45:13;-8.50;99.90
30851;DHT22;17567;48.382;9.102;2022-12-11T23:50:14;-8.70;99.90
30851;DHT22;17567;48.382;9.102;2022-12-11T23:55:17;-8.40;99.90
